createdAt,value
2022-10-18T08:30:24.672Z,15.93
2022-10-18T08:32:28.544Z,18.35
2022-10-18T08:34:30.834Z,16.15
2022-10-18T08:36:33.149Z,15.57
2022-10-18T08:38:37.607Z,15.20
2022-10-18T08:40:44.483Z,13.43
2022-10-18T08:42:46.644Z,13.32
2022-10-18T08:44:51.759Z,10.48
2022-10-18T08:47:07.077Z,10.50
2022-10-18T08:49:19.371Z,17.20
2022-10-18T08:51:38.853Z,10.82
2022-10-18T08:53:51.987Z,10.18
2022-10-18T08:56:11.048Z,10.45
2022-10-18T08:58:19.305Z,9.80
2022-10-18T09:02:37.393Z,9.40
2022-10-18T09:04:57.574Z,9.95
2022-10-18T09:07:18.443Z,9.00
2022-10-18T09:09:56.065Z,9.30
2022-10-18T09:12:05.961Z,8.88
2022-10-18T09:14:33.983Z,7.82
2022-10-18T09:16:54.510Z,8.18
2022-10-18T09:19:11.826Z,8.55
2022-10-18T09:21:24.880Z,8.15
2022-10-18T09:23:44.188Z,8.50
2022-10-18T09:26:27.891Z,8.10
2022-10-18T09:28:40.604Z,8.55
2022-10-18T09:30:49.779Z,7.93
2022-10-18T09:33:10.791Z,8.45
2022-10-18T09:35:27.695Z,8.35
2022-10-18T09:37:34.076Z,7.82
2022-10-18T09:39:38.276Z,8.57
2022-10-18T09:42:08.542Z,6.60
2022-10-18T09:44:14.538Z,6.93
2022-10-18T09:46:20.159Z,7.20
2022-10-18T09:48:42.736Z,8.20
2022-10-18T09:50:50.969Z,7.47
2022-10-18T09:53:03.909Z,7.32
2022-10-18T09:55:15.557Z,7.30
2022-10-18T09:57:40.341Z,6.97
2022-10-18T09:59:50.031Z,7.05
2022-10-18T10:01:52.259Z,6.43
2022-10-18T10:03:54.907Z,11.00
2022-10-18T10:06:12.674Z,6.70
2022-10-18T10:08:14.945Z,6.68
2022-10-18T10:10:17.601Z,6.47
2022-10-18T10:12:31.472Z,6.50
2022-10-18T10:14:43.928Z,5.82
2022-10-18T10:17:05.756Z,5.85
2022-10-18T10:19:17.236Z,5.97
2022-10-18T10:21:20.638Z,6.05
2022-10-18T10:23:32.273Z,6.20
2022-10-18T10:25:38.172Z,5.30
2022-10-18T10:27:45.125Z,5.68
2022-10-18T10:29:47.674Z,5.70
2022-10-18T10:32:04.001Z,9.43
2022-10-18T10:34:21.029Z,5.72
2022-10-18T10:36:23.978Z,5.70
2022-10-18T10:38:28.892Z,6.85
2022-10-18T10:40:34.526Z,6.62
2022-10-18T10:42:49.077Z,5.93
2022-10-18T10:44:55.395Z,5.20
2022-10-18T10:46:58.644Z,6.35
2022-10-18T10:49:34.914Z,6.82
2022-10-18T10:51:31.069Z,5.82
2022-10-18T10:53:33.266Z,5.68
2022-10-18T10:55:36.017Z,6.03
2022-10-18T10:57:38.501Z,5.57
2022-10-18T10:59:45.334Z,6.28
2022-10-18T11:01:52.965Z,5.60
2022-10-18T11:03:58.229Z,6.53
2022-10-18T11:06:02.099Z,6.20
2022-10-18T11:08:05.510Z,6.57
2022-10-18T11:10:10.702Z,6.45
2022-10-18T11:12:43.759Z,7.03
2022-10-18T11:14:52.651Z,5.30
2022-10-18T11:17:01.178Z,5.00
2022-10-18T11:19:22.209Z,5.97
2022-10-18T11:21:30.889Z,5.78
2022-10-18T11:23:35.652Z,5.95
2022-10-18T11:25:51.730Z,5.68
2022-10-18T11:27:57.197Z,5.10
2022-10-18T11:30:22.052Z,4.57
2022-10-18T11:33:01.981Z,5.28
2022-10-18T11:38:31.083Z,5.53
2022-10-18T11:40:48.897Z,5.30
2022-10-18T11:42:58.545Z,5.10
2022-10-18T11:45:26.652Z,5.10
2022-10-18T11:47:39.050Z,5.03
2022-10-18T11:49:47.154Z,4.85
2022-10-18T11:52:10.978Z,4.82
2022-10-18T11:54:26.518Z,5.22
2022-10-18T11:56:35.565Z,4.50
2022-10-18T11:58:42.811Z,4.78
2022-10-18T12:01:08.032Z,5.10
2022-10-18T12:03:50.615Z,4.45
2022-10-18T12:05:55.693Z,4.50
2022-10-18T12:08:24.029Z,4.78
2022-10-18T12:10:44.318Z,5.03
2022-10-18T12:12:57.189Z,5.07
2022-10-18T12:15:03.577Z,4.85
2022-10-18T12:17:49.880Z,5.43
2022-10-18T12:19:56.378Z,5.75
2022-10-18T12:22:14.472Z,4.60
2022-10-18T12:24:25.491Z,5.70
2022-10-18T12:26:29.708Z,5.62
2022-10-18T12:28:41.363Z,5.78
2022-10-18T12:30:51.078Z,4.68
2022-10-18T12:33:26.673Z,5.40
2022-10-18T12:35:31.853Z,5.10
2022-10-18T12:38:09.557Z,5.65
2022-10-18T12:40:22.086Z,4.85
2022-10-18T12:42:28.573Z,4.55
2022-10-18T12:44:34.286Z,5.10
2022-10-18T12:46:45.909Z,4.90
2022-10-18T12:49:03.961Z,5.20
2022-10-18T12:51:26.985Z,5.93
2022-10-18T12:53:29.830Z,4.45
2022-10-18T12:55:36.914Z,5.12
2022-10-18T12:57:51.543Z,4.70
2022-10-18T12:59:53.967Z,4.40
2022-10-18T13:01:56.405Z,7.50
2022-10-18T13:03:59.302Z,4.28
2022-10-18T13:06:05.716Z,4.40
2022-10-18T13:08:27.645Z,3.97
2022-10-18T13:10:36.342Z,4.70
2022-10-18T13:13:35.832Z,3.95
2022-10-18T13:15:44.306Z,3.75
2022-10-18T13:18:05.160Z,4.95
2022-10-18T13:20:26.177Z,4.07
2022-10-18T13:22:47.226Z,5.87
2022-10-18T13:25:01.876Z,3.70
2022-10-18T13:27:43.571Z,5.15
2022-10-18T13:30:10.633Z,3.87
2022-10-18T13:32:31.274Z,4.72
2022-10-18T13:36:42.365Z,3.65
2022-10-18T13:38:55.567Z,4.10
2022-10-18T13:41:05.960Z,4.03
2022-10-18T13:43:50.165Z,4.00
2022-10-18T13:45:55.892Z,4.22
2022-10-18T13:48:41.547Z,4.25
2022-10-18T13:50:47.657Z,3.85
2022-10-18T13:52:55.899Z,4.05
2022-10-18T13:55:16.900Z,4.87
2022-10-18T13:57:45.070Z,3.97
2022-10-18T14:00:05.997Z,4.68
2022-10-18T14:02:42.980Z,4.12
2022-10-18T14:05:23.731Z,4.40
2022-10-18T14:07:28.147Z,5.12
2022-10-18T14:09:52.477Z,4.53
2022-10-18T14:12:20.427Z,5.37
2022-10-18T14:14:33.992Z,3.70
2022-10-18T14:16:46.760Z,3.67
2022-10-18T14:18:53.628Z,5.00
2022-10-18T14:21:19.856Z,4.47
2022-10-18T14:23:44.838Z,3.80
2022-10-18T14:25:48.486Z,4.03
2022-10-18T14:28:08.861Z,4.65
2022-10-18T14:30:19.062Z,4.93
2022-10-18T14:32:28.424Z,4.12
2022-10-18T14:34:30.887Z,4.18
2022-10-18T14:36:51.829Z,4.20
2022-10-18T14:39:00.625Z,4.32
2022-10-18T14:41:14.299Z,4.20
2022-10-18T14:43:20.164Z,4.35
2022-10-18T14:45:23.913Z,4.45
2022-10-18T14:47:31.310Z,4.32
2022-10-18T14:49:36.155Z,4.90
2022-10-18T14:51:40.937Z,3.97
2022-10-18T14:53:43.489Z,3.78
2022-10-18T14:55:54.891Z,4.68
2022-10-18T14:57:58.475Z,5.80
2022-10-18T15:00:04.282Z,6.95
2022-10-18T15:02:16.781Z,5.25
2022-10-18T15:04:21.760Z,5.00
2022-10-18T15:06:26.789Z,4.72
2022-10-18T15:08:37.486Z,5.22
2022-10-18T15:10:41.014Z,8.95
2022-10-18T15:13:04.829Z,9.30
2022-10-18T15:15:15.061Z,6.28
2022-10-18T15:17:22.670Z,6.47
2022-10-18T15:19:32.849Z,4.93
2022-10-18T15:21:36.345Z,5.28
2022-10-18T15:23:38.913Z,6.87
2022-10-18T15:25:41.134Z,5.40
2022-10-18T15:27:55.601Z,5.10
2022-10-18T15:30:01.780Z,6.45
2022-10-18T15:32:25.849Z,9.48
2022-10-18T15:34:28.243Z,7.68
2022-10-18T15:36:32.506Z,5.95
2022-10-18T15:38:36.814Z,4.50
2022-10-18T15:40:40.566Z,6.78
2022-10-18T15:42:43.299Z,4.97
2022-10-18T15:44:51.524Z,4.97
2022-10-18T15:47:12.043Z,18.77
2022-10-18T15:51:49.307Z,8.80
2022-10-18T15:53:54.284Z,6.25
2022-10-18T15:56:04.458Z,8.77
2022-10-18T15:58:16.130Z,7.30
2022-10-18T16:00:20.558Z,7.10
2022-10-18T16:02:23.167Z,10.35
2022-10-18T16:04:26.961Z,9.68
2022-10-18T16:06:29.340Z,10.55
2022-10-18T16:08:33.337Z,9.23
2022-10-18T16:10:35.898Z,16.90
2022-10-18T16:12:38.168Z,32.25
2022-10-18T16:14:40.685Z,14.00
2022-10-18T16:16:43.162Z,10.65
2022-10-18T16:18:48.544Z,10.10
2022-10-18T16:20:51.143Z,10.07
2022-10-18T16:22:56.422Z,9.40
2022-10-18T16:24:58.774Z,7.95
2022-10-18T16:27:01.389Z,7.87
2022-10-18T16:29:04.754Z,7.72
2022-10-18T16:31:08.277Z,10.00
2022-10-18T16:33:10.959Z,11.27
2022-10-18T16:35:15.974Z,12.40
2022-10-18T16:37:18.430Z,12.68
2022-10-18T16:39:22.246Z,10.98
2022-10-18T16:47:40.214Z,8.23
2022-10-18T16:49:46.879Z,8.38
2022-10-18T16:51:50.334Z,8.88
2022-10-18T16:53:53.773Z,6.65
2022-10-18T16:56:01.536Z,7.28
2022-10-18T16:58:04.027Z,7.30
2022-10-18T17:00:07.459Z,7.75
2022-10-18T17:02:17.403Z,8.45
2022-10-18T17:04:19.971Z,8.50
2022-10-18T17:06:28.176Z,7.82
2022-10-18T17:08:30.875Z,9.23
2022-10-18T17:10:33.936Z,9.18
2022-10-18T17:12:36.259Z,9.20
2022-10-18T17:14:38.870Z,9.15
2022-10-18T17:16:44.467Z,7.93
2022-10-18T17:18:49.478Z,8.82
2022-10-18T17:20:52.669Z,8.52
2022-10-18T17:22:55.116Z,7.80
2022-10-18T17:24:57.963Z,9.43
2022-10-18T17:27:00.904Z,8.43
2022-10-18T17:29:07.014Z,8.65
2022-10-18T17:31:09.626Z,11.55
2022-10-18T17:33:14.795Z,9.23
2022-10-18T17:35:17.346Z,8.55
2022-10-18T17:37:20.499Z,8.63
2022-10-18T17:39:23.539Z,9.13
2022-10-18T17:41:26.294Z,8.60
2022-10-18T17:43:29.056Z,9.27
2022-10-18T17:45:33.193Z,9.88
2022-10-18T17:47:35.694Z,13.75
2022-10-18T17:49:38.675Z,11.02
2022-10-18T17:51:43.215Z,11.60
2022-10-18T17:53:48.372Z,9.45
2022-10-18T17:55:51.253Z,10.68
2022-10-18T17:57:53.879Z,12.68
2022-10-18T17:59:57.012Z,12.55
2022-10-18T18:01:59.779Z,15.23
2022-10-18T18:04:03.930Z,12.05
2022-10-18T18:06:21.995Z,10.38
2022-10-18T18:08:25.968Z,11.12
2022-10-18T18:10:30.111Z,11.98
2022-10-18T18:12:33.113Z,9.73
2022-10-18T18:14:35.988Z,9.05
2022-10-18T18:16:41.693Z,9.43
2022-10-18T18:18:45.529Z,8.77
2022-10-18T18:20:55.022Z,9.07
2022-10-18T18:22:58.640Z,10.00
2022-10-18T18:25:01.390Z,9.23
2022-10-18T18:27:04.274Z,11.43
2022-10-18T18:29:08.829Z,10.10
2022-10-18T18:31:14.632Z,9.70
2022-10-18T18:33:17.306Z,8.45
2022-10-18T18:35:20.234Z,9.70
2022-10-18T18:37:22.916Z,9.73
2022-10-18T18:39:29.714Z,15.48
2022-10-18T18:41:33.047Z,17.12
2022-10-18T18:43:36.676Z,12.30
2022-10-18T18:45:39.374Z,13.85
2022-10-18T18:47:42.463Z,48.85
2022-10-18T18:49:45.324Z,26.00
2022-10-18T18:51:48.612Z,15.90
2022-10-18T18:53:52.780Z,12.75
2022-10-18T18:55:55.623Z,12.98
2022-10-18T18:57:58.343Z,11.95
2022-10-18T19:00:01.315Z,11.25
2022-10-18T19:02:03.630Z,9.93
2022-10-18T19:04:07.564Z,11.15
2022-10-18T19:06:17.802Z,10.77
2022-10-18T19:08:20.024Z,13.80
2022-10-18T19:10:25.522Z,14.98
2022-10-18T19:12:28.616Z,11.93
2022-10-18T19:14:31.212Z,8.57
2022-10-18T19:17:01.615Z,15.73
2022-10-18T19:19:10.479Z,15.93
2022-10-18T19:21:13.198Z,11.65
2022-10-18T19:23:16.027Z,11.43
2022-10-18T19:25:21.120Z,63.15
2022-10-18T19:27:26.162Z,34.33
2022-10-18T19:29:34.169Z,58.70
2022-10-18T19:31:38.078Z,24.20
2022-10-18T19:33:55.670Z,15.98
2022-10-18T19:36:01.293Z,11.70
2022-10-18T19:38:04.269Z,11.48
2022-10-18T19:40:10.739Z,11.75
2022-10-18T19:42:17.471Z,11.50
2022-10-18T19:44:25.748Z,10.63
2022-10-18T19:46:28.591Z,9.48
2022-10-18T19:48:31.152Z,8.95
2022-10-18T19:50:35.188Z,11.00
2022-10-18T19:52:37.902Z,12.98
2022-10-18T19:54:40.792Z,10.80
2022-10-18T19:56:43.852Z,12.68
2022-10-18T19:58:46.791Z,9.95
2022-10-18T20:00:53.097Z,10.90
2022-10-18T20:02:56.028Z,9.40
2022-10-18T20:04:58.652Z,11.00
2022-10-18T20:07:02.814Z,11.68
2022-10-18T20:09:07.411Z,11.75
2022-10-18T20:11:16.720Z,12.57
2022-10-18T20:13:19.398Z,11.70
2022-10-18T20:15:22.090Z,12.73
2022-10-18T20:17:24.326Z,10.10
2022-10-18T20:19:26.911Z,11.45
2022-10-18T20:21:31.751Z,25.92
2022-10-18T20:23:37.915Z,13.13
2022-10-18T20:25:40.138Z,14.77
2022-10-18T20:27:42.651Z,11.40
2022-10-18T20:29:45.064Z,10.30
2022-10-18T20:31:47.677Z,10.93
2022-10-18T20:33:56.287Z,10.65
2022-10-18T20:36:06.037Z,11.05
2022-10-18T20:38:08.226Z,18.52
2022-10-18T20:40:11.751Z,25.65
2022-10-18T20:42:13.993Z,20.52
2022-10-18T20:44:19.297Z,13.45
2022-10-18T20:46:22.412Z,13.85
2022-10-18T20:48:26.088Z,11.90
2022-10-18T20:50:28.316Z,10.80
2022-10-18T20:52:31.033Z,10.20
2022-10-18T20:54:33.329Z,11.18
2022-10-18T20:56:36.632Z,11.93
2022-10-18T20:58:40.512Z,10.70
2022-10-18T21:00:42.800Z,12.23
2022-10-18T21:02:45.043Z,11.18
2022-10-18T21:04:47.798Z,11.30
2022-10-18T21:06:50.013Z,12.50
2022-10-18T21:08:57.454Z,13.05
2022-10-18T21:11:01.151Z,27.60
2022-10-18T21:13:03.461Z,11.63
2022-10-18T21:15:06.706Z,10.70
2022-10-18T21:17:09.539Z,11.12
2022-10-18T21:19:17.702Z,12.57
2022-10-18T21:21:24.063Z,12.35
2022-10-18T21:23:26.636Z,11.75
2022-10-18T21:25:28.871Z,11.32
2022-10-18T21:27:31.102Z,19.67
2022-10-18T21:29:33.642Z,16.05
2022-10-18T21:31:39.248Z,9.30
2022-10-18T21:33:42.610Z,8.93
2022-10-18T21:35:45.141Z,10.02
2022-10-18T21:37:47.355Z,11.70
2022-10-18T21:39:49.561Z,9.48
2022-10-18T21:41:52.053Z,9.27
2022-10-18T21:43:55.122Z,9.02
2022-10-18T21:45:59.339Z,16.12
2022-10-18T21:48:03.703Z,9.23
2022-10-18T21:50:06.408Z,9.18
2022-10-18T21:52:08.638Z,8.63
2022-10-18T21:54:14.225Z,8.55
2022-10-18T21:56:18.900Z,9.30
2022-10-18T21:58:21.135Z,11.15
2022-10-18T22:00:24.014Z,8.90
2022-10-18T22:02:26.587Z,8.60
2022-10-18T22:04:29.012Z,24.83
2022-10-18T22:06:36.825Z,9.93
2022-10-18T22:08:50.333Z,9.27
2022-10-18T22:10:52.567Z,9.25
2022-10-18T22:12:57.711Z,9.82
2022-10-18T22:15:00.417Z,10.90
